Terminal Aerodrome Forecast
Issued by NWS Knoxville/Tri Cities, TN

Home | Current Version | Previous Version | Text Only | Print | Product List | Glossary On
Versions: 1 2 3 4 5 6 7 8 9 10 11 12 13 14 15 16 17 18 19 20 21 22 23 24 25 26 27 28 29 30
011
FTUS44 KMRX 270522
TAFTRI
TAF
KTRI 270522Z 2706/2806 VRB02KT 6SM BR SCT060 SCT250
     FM270800 00000KT 3SM BR SCT010 SCT250
     FM271300 25005KT P6SM SCT250
     FM280000 27003KT P6SM BKN250=

USA.gov is the U.S. government's official web portal to all federal, state and local government web resources and services.